createdAt,value
2019-05-18T00:01:33.182Z,99.90
2019-05-18T00:04:02.051Z,99.90
2019-05-18T00:06:30.895Z,99.90
2019-05-18T00:08:59.843Z,99.90
2019-05-18T00:11:28.774Z,99.90
2019-05-18T00:13:57.660Z,99.90
2019-05-18T00:16:26.576Z,99.90
2019-05-18T00:18:55.449Z,99.90
2019-05-18T00:21:24.827Z,99.90
2019-05-18T00:23:54.083Z,99.90
2019-05-18T00:26:23.155Z,99.90
2019-05-18T00:28:52.011Z,99.90
2019-05-18T00:31:21.201Z,99.90
2019-05-18T00:33:50.032Z,99.90
2019-05-18T00:36:18.951Z,99.90
2019-05-18T00:38:47.859Z,99.90
2019-05-18T00:41:16.709Z,99.90
2019-05-18T00:43:45.590Z,99.90
2019-05-18T00:46:14.511Z,99.90
2019-05-18T00:48:43.430Z,99.90
2019-05-18T00:51:12.324Z,99.90
2019-05-18T00:53:41.228Z,99.90
2019-05-18T00:56:10.095Z,99.90
2019-05-18T00:58:38.952Z,99.90
2019-05-18T01:01:07.839Z,99.90
2019-05-18T01:03:36.823Z,99.90
2019-05-18T01:06:05.627Z,99.90
2019-05-18T01:08:34.615Z,99.90
2019-05-18T01:11:03.412Z,99.90
2019-05-18T01:13:32.340Z,99.90
2019-05-18T01:16:01.294Z,99.90
2019-05-18T01:18:30.182Z,99.90
2019-05-18T01:20:59.635Z,99.90
2019-05-18T01:23:28.559Z,99.90
2019-05-18T01:25:57.411Z,99.90
2019-05-18T01:28:26.480Z,99.90
2019-05-18T01:30:55.359Z,99.90
2019-05-18T01:33:24.418Z,99.90
2019-05-18T01:35:53.264Z,99.90
2019-05-18T01:38:22.248Z,99.90
2019-05-18T01:40:51.191Z,99.90
2019-05-18T01:43:20.197Z,99.90
2019-05-18T01:45:49.052Z,99.90
2019-05-18T01:48:17.951Z,99.90
2019-05-18T01:50:46.884Z,99.90
2019-05-18T01:53:15.844Z,99.90
2019-05-18T01:55:44.653Z,99.90
2019-05-18T01:58:13.655Z,99.90
2019-05-18T02:00:42.476Z,99.90
2019-05-18T02:03:11.387Z,99.90
2019-05-18T02:05:40.202Z,99.90
2019-05-18T02:08:09.112Z,99.90
2019-05-18T02:10:38.062Z,99.90
2019-05-18T02:13:06.945Z,99.90
2019-05-18T02:15:35.953Z,99.90
2019-05-18T02:18:04.813Z,99.90
2019-05-18T02:20:33.657Z,99.90
2019-05-18T02:23:02.602Z,99.90
2019-05-18T02:25:31.665Z,99.90
2019-05-18T02:28:00.526Z,99.90
2019-05-18T02:30:29.413Z,99.90
2019-05-18T02:32:58.291Z,99.90
2019-05-18T02:35:27.264Z,99.90
2019-05-18T02:37:57.696Z,99.90
2019-05-18T02:40:26.573Z,99.90
2019-05-18T02:42:55.496Z,99.90
2019-05-18T02:45:24.430Z,99.90
2019-05-18T02:47:53.376Z,99.90
2019-05-18T02:50:22.212Z,99.90
2019-05-18T02:52:51.105Z,99.90
2019-05-18T02:55:20.008Z,99.90
2019-05-18T02:57:48.874Z,99.90
2019-05-18T03:00:17.714Z,99.90
2019-05-18T03:02:46.620Z,99.90
2019-05-18T03:05:15.454Z,99.90
2019-05-18T03:07:44.342Z,99.90
2019-05-18T03:10:13.336Z,99.90
2019-05-18T03:12:42.533Z,99.90
2019-05-18T03:15:11.667Z,99.90
2019-05-18T03:17:40.573Z,99.90
2019-05-18T03:20:11.006Z,99.90
2019-05-18T03:22:39.895Z,99.90
2019-05-18T03:25:08.826Z,99.90
2019-05-18T03:27:37.745Z,99.90
2019-05-18T03:30:08.137Z,99.90
2019-05-18T03:32:37.019Z,99.90
2019-05-18T03:35:06.142Z,99.90
2019-05-18T03:37:35.095Z,99.90
2019-05-18T03:40:05.320Z,99.90
2019-05-18T03:42:34.355Z,99.90
2019-05-18T03:45:03.285Z,99.90
2019-05-18T03:47:32.096Z,99.90
2019-05-18T03:50:00.993Z,99.90
2019-05-18T03:52:29.875Z,99.90
2019-05-18T03:54:58.746Z,99.90
2019-05-18T03:57:27.724Z,99.90
2019-05-18T03:59:56.657Z,99.90
2019-05-18T04:02:25.564Z,99.90
2019-05-18T04:04:54.476Z,99.90
2019-05-18T04:07:23.415Z,99.90
2019-05-18T04:09:52.277Z,99.90
2019-05-18T04:12:21.203Z,99.90
2019-05-18T04:14:50.037Z,99.90
2019-05-18T04:17:18.994Z,99.90
2019-05-18T04:19:47.871Z,99.90
2019-05-18T04:22:16.778Z,99.90
2019-05-18T04:24:45.601Z,99.90
2019-05-18T04:27:14.568Z,99.90
2019-05-18T04:29:43.376Z,99.90
2019-05-18T04:32:12.236Z,99.90
2019-05-18T04:34:41.123Z,99.90
2019-05-18T04:37:09.980Z,99.90
2019-05-18T04:39:38.887Z,99.90
2019-05-18T04:42:07.785Z,99.90
2019-05-18T04:44:36.824Z,99.90
2019-05-18T04:47:05.779Z,99.90
2019-05-18T04:49:34.672Z,99.90
2019-05-18T04:52:03.584Z,99.90
2019-05-18T04:54:32.564Z,99.90
2019-05-18T04:57:01.405Z,99.90
2019-05-18T04:59:30.308Z,99.90
2019-05-18T05:01:59.212Z,99.90
2019-05-18T05:04:28.184Z,99.90
2019-05-18T05:06:57.106Z,99.90
2019-05-18T05:09:26.033Z,99.90
2019-05-18T05:11:54.955Z,99.90
2019-05-18T05:14:23.842Z,99.90
2019-05-18T05:16:52.743Z,99.90
2019-05-18T05:19:21.623Z,99.90
2019-05-18T05:21:50.523Z,99.90
2019-05-18T05:24:19.414Z,99.90
2019-05-18T05:26:48.259Z,99.90
2019-05-18T05:29:17.258Z,99.90
2019-05-18T05:31:46.132Z,99.90
2019-05-18T05:34:15.064Z,99.90
2019-05-18T05:36:43.966Z,99.90
2019-05-18T05:39:12.899Z,99.90
2019-05-18T05:41:41.822Z,99.90
2019-05-18T05:44:10.684Z,99.90
2019-05-18T05:46:39.587Z,99.90
2019-05-18T05:49:08.633Z,99.90
2019-05-18T05:51:37.544Z,99.90
2019-05-18T05:54:06.359Z,99.90
2019-05-18T05:56:35.303Z,99.90
2019-05-18T05:59:04.259Z,99.90
2019-05-18T06:01:33.131Z,99.90
2019-05-18T06:04:02.035Z,99.90
2019-05-18T06:06:30.917Z,99.90
2019-05-18T06:08:59.836Z,99.90
2019-05-18T06:11:28.757Z,99.90
2019-05-18T06:13:57.647Z,99.90
2019-05-18T06:16:26.617Z,99.90
2019-05-18T06:18:55.529Z,99.90
2019-05-18T06:21:24.379Z,99.90
2019-05-18T06:23:53.309Z,99.90
2019-05-18T06:26:24.252Z,99.90
2019-05-18T06:28:52.886Z,99.90
2019-05-18T06:31:23.240Z,99.90
2019-05-18T06:33:52.252Z,99.90
2019-05-18T06:36:21.239Z,99.90
2019-05-18T06:38:50.200Z,99.90
2019-05-18T06:41:19.125Z,99.90
2019-05-18T06:43:47.984Z,99.90
2019-05-18T06:46:16.898Z,99.90
2019-05-18T06:48:45.752Z,99.90
2019-05-18T06:51:14.682Z,99.90
2019-05-18T06:53:43.554Z,99.90
2019-05-18T06:56:14.247Z,99.90
2019-05-18T06:58:43.295Z,99.90
2019-05-18T07:01:12.195Z,99.90
2019-05-18T07:03:41.121Z,99.90
2019-05-18T07:06:09.993Z,99.90
2019-05-18T07:08:38.918Z,99.90
2019-05-18T07:11:07.838Z,99.90
2019-05-18T07:13:36.767Z,99.90
2019-05-18T07:16:05.742Z,99.90
2019-05-18T07:18:34.578Z,99.90
2019-05-18T07:21:03.504Z,99.90
2019-05-18T07:23:32.360Z,99.90
2019-05-18T07:26:01.240Z,99.90
2019-05-18T07:28:30.122Z,99.90
2019-05-18T07:30:59.020Z,99.90
2019-05-18T07:33:29.443Z,99.90
2019-05-18T07:35:58.324Z,98.00
2019-05-18T07:38:28.913Z,98.20
2019-05-18T07:40:57.805Z,98.40
2019-05-18T07:43:26.812Z,98.30
2019-05-18T07:45:55.707Z,99.60
2019-05-18T07:48:24.632Z,99.90
2019-05-18T07:50:53.550Z,98.70
2019-05-18T07:53:22.457Z,98.40
2019-05-18T07:55:51.395Z,98.70
2019-05-18T07:58:20.222Z,99.90
2019-05-18T08:00:49.126Z,99.90
2019-05-18T08:03:17.996Z,99.90
2019-05-18T08:05:46.941Z,98.50
2019-05-18T08:08:15.998Z,98.00
2019-05-18T08:10:44.938Z,95.00
2019-05-18T08:13:13.872Z,94.30
2019-05-18T08:15:42.725Z,92.70
2019-05-18T08:18:11.605Z,92.10
2019-05-18T08:20:40.474Z,91.10
2019-05-18T08:23:09.408Z,87.60
2019-05-18T08:25:38.292Z,88.30
2019-05-18T08:28:07.215Z,90.50
2019-05-18T08:30:36.079Z,89.70
2019-05-18T08:33:04.990Z,90.80
2019-05-18T08:35:33.867Z,90.20
2019-05-18T08:38:02.775Z,88.30
2019-05-18T08:40:31.765Z,92.20
2019-05-18T08:43:00.624Z,91.70
2019-05-18T08:45:29.480Z,90.50
2019-05-18T08:47:58.396Z,88.00
2019-05-18T08:50:27.296Z,88.30
2019-05-18T08:52:56.197Z,90.30
2019-05-18T08:55:25.075Z,85.20
2019-05-18T08:57:54.046Z,80.70
2019-05-18T09:00:23.242Z,80.90
2019-05-18T09:02:52.157Z,81.90
2019-05-18T09:05:21.178Z,78.10
2019-05-18T09:07:50.033Z,77.90
2019-05-18T09:10:19.263Z,76.80
2019-05-18T09:12:48.222Z,78.10
2019-05-18T09:15:17.100Z,76.80
2019-05-18T09:17:45.984Z,75.90
2019-05-18T09:20:17.058Z,73.60
2019-05-18T09:22:45.909Z,72.80
2019-05-18T09:25:15.125Z,74.40
2019-05-18T09:27:44.072Z,68.00
2019-05-18T09:30:13.512Z,68.70
2019-05-18T09:32:42.467Z,64.60
2019-05-18T09:35:11.568Z,63.70
2019-05-18T09:37:40.435Z,65.60
2019-05-18T09:40:09.777Z,63.10
2019-05-18T09:42:38.801Z,66.80
2019-05-18T09:45:09.653Z,62.10
2019-05-18T09:47:38.563Z,63.20
2019-05-18T09:50:09.029Z,62.20
2019-05-18T09:52:46.105Z,66.70
2019-05-18T09:55:09.552Z,63.70
2019-05-18T09:57:38.479Z,63.20
2019-05-18T10:00:09.622Z,64.90
2019-05-18T10:02:38.534Z,61.80
2019-05-18T10:05:08.464Z,59.90
2019-05-18T10:07:37.412Z,59.10
2019-05-18T10:10:08.057Z,59.50
2019-05-18T10:12:37.031Z,57.00
2019-05-18T10:15:07.288Z,57.80
2019-05-18T10:17:36.206Z,58.50
2019-05-18T10:20:07.351Z,58.50
2019-05-18T10:22:36.287Z,57.40
2019-05-18T10:25:06.634Z,55.50
2019-05-18T10:27:35.534Z,56.00
2019-05-18T10:30:09.332Z,54.00
2019-05-18T10:32:38.218Z,55.70
2019-05-18T10:35:07.920Z,53.70
2019-05-18T10:37:36.803Z,56.40
2019-05-18T10:40:07.698Z,54.40
2019-05-18T10:42:36.626Z,53.20
2019-05-18T10:45:09.146Z,52.50
2019-05-18T10:47:38.026Z,53.40
2019-05-18T10:50:07.854Z,54.40
2019-05-18T10:52:37.537Z,53.60
2019-05-18T10:55:08.566Z,52.40
2019-05-18T10:57:37.491Z,51.90
2019-05-18T11:00:08.313Z,52.00
2019-05-18T11:02:37.192Z,51.10
2019-05-18T11:05:09.255Z,52.60
2019-05-18T11:07:38.111Z,52.60
2019-05-18T11:10:10.963Z,49.80
2019-05-18T11:12:39.853Z,50.50
2019-05-18T11:15:09.593Z,50.00
2019-05-18T11:17:38.625Z,50.10
2019-05-18T11:20:09.868Z,50.00
2019-05-18T11:22:38.724Z,48.30
2019-05-18T11:25:08.845Z,49.00
2019-05-18T11:27:37.708Z,48.00
2019-05-18T11:30:08.632Z,47.90
2019-05-18T11:32:38.080Z,49.10
2019-05-18T11:35:08.848Z,51.00
2019-05-18T11:37:37.740Z,51.10
2019-05-18T11:40:08.840Z,49.90
2019-05-18T11:42:37.723Z,50.30
2019-05-18T11:45:12.529Z,51.00
2019-05-18T11:47:41.512Z,51.90
2019-05-18T11:50:11.453Z,52.90
2019-05-18T11:52:40.324Z,52.10
2019-05-18T11:55:09.824Z,52.50
2019-05-18T11:57:38.679Z,53.60
2019-05-18T12:00:09.718Z,54.10
2019-05-18T12:02:38.541Z,53.40
2019-05-18T12:05:07.948Z,54.20
2019-05-18T12:07:36.808Z,53.10
2019-05-18T12:10:09.402Z,54.00
2019-05-18T12:12:38.297Z,53.20
2019-05-18T12:15:08.895Z,52.70
2019-05-18T12:17:37.763Z,52.00
2019-05-18T12:20:08.022Z,51.60
2019-05-18T12:22:37.156Z,49.90
2019-05-18T12:25:07.226Z,50.00
2019-05-18T12:27:36.148Z,50.20
2019-05-18T12:30:07.098Z,49.00
2019-05-18T12:32:36.027Z,47.40
2019-05-18T12:35:06.599Z,48.50
2019-05-18T12:37:35.545Z,46.40
2019-05-18T12:40:08.171Z,46.80
2019-05-18T12:42:37.071Z,45.60
2019-05-18T12:45:08.861Z,45.80
2019-05-18T12:47:37.750Z,47.50
2019-05-18T12:50:08.490Z,48.70
2019-05-18T12:55:12.057Z,48.50
2019-05-18T12:57:41.007Z,48.00
2019-05-18T13:00:15.385Z,46.10
2019-05-18T13:02:44.301Z,46.00
2019-05-18T13:05:13.283Z,46.10
2019-05-18T13:07:42.241Z,46.30
2019-05-18T13:10:12.075Z,46.30
2019-05-18T13:12:41.007Z,45.80
2019-05-18T13:15:11.242Z,44.80
2019-05-18T13:17:40.165Z,45.80
2019-05-18T13:20:10.405Z,42.80
2019-05-18T13:22:39.325Z,42.40
2019-05-18T13:25:08.866Z,42.20
2019-05-18T13:27:39.756Z,40.90
2019-05-18T13:30:09.837Z,40.50
2019-05-18T13:32:38.679Z,40.90
2019-05-18T13:35:08.502Z,40.50
2019-05-18T13:37:37.475Z,39.20
2019-05-18T13:40:07.592Z,38.60
2019-05-18T13:42:36.527Z,38.40
2019-05-18T13:45:07.462Z,39.30
2019-05-18T13:47:36.352Z,38.40
2019-05-18T13:50:06.514Z,38.60
2019-05-18T13:52:35.535Z,38.80
2019-05-18T13:55:05.964Z,39.90
2019-05-18T13:57:35.175Z,38.00
2019-05-18T14:00:06.539Z,37.30
2019-05-18T14:02:35.767Z,37.60
2019-05-18T14:05:06.320Z,37.80
2019-05-18T14:07:35.430Z,37.90
2019-05-18T14:10:06.956Z,37.70
2019-05-18T14:12:36.123Z,37.10
2019-05-18T14:15:06.313Z,36.70
2019-05-18T14:17:35.223Z,35.60
2019-05-18T14:20:04.987Z,35.80
2019-05-18T14:22:33.875Z,36.60
2019-05-18T14:25:10.570Z,36.00
2019-05-18T14:27:33.394Z,35.10
2019-05-18T14:30:02.329Z,33.40
2019-05-18T14:32:31.274Z,33.70
2019-05-18T14:35:00.334Z,33.90
2019-05-18T14:37:29.206Z,35.60
2019-05-18T14:39:58.118Z,36.40
2019-05-18T14:42:27.061Z,36.40
2019-05-18T14:44:55.941Z,35.60
2019-05-18T14:47:27.395Z,36.90
2019-05-18T14:49:55.394Z,36.90
2019-05-18T14:52:24.389Z,37.10
2019-05-18T14:54:53.348Z,37.40
2019-05-18T14:57:25.460Z,37.60
2019-05-18T14:59:52.797Z,36.70
2019-05-18T15:02:21.691Z,38.20
2019-05-18T15:04:53.387Z,40.20
2019-05-18T15:07:21.159Z,41.80
2019-05-18T15:09:50.149Z,43.90
2019-05-18T15:12:19.000Z,42.80
2019-05-18T15:14:47.910Z,41.00
2019-05-18T15:17:16.872Z,40.20
2019-05-18T15:19:45.793Z,41.20
2019-05-18T15:22:14.696Z,40.60
2019-05-18T15:24:43.562Z,40.20
2019-05-18T15:27:12.466Z,41.60
2019-05-18T15:29:41.365Z,40.70
2019-05-18T15:32:10.264Z,41.80
2019-05-18T15:34:39.182Z,39.00
2019-05-18T15:37:08.075Z,39.00
2019-05-18T15:39:38.317Z,37.30
2019-05-18T15:42:08.631Z,38.50
2019-05-18T15:44:37.560Z,38.50
2019-05-18T15:47:06.436Z,36.50
2019-05-18T15:49:35.605Z,36.10
2019-05-18T15:52:05.408Z,34.60
2019-05-18T15:54:36.194Z,34.20
2019-05-18T15:57:05.538Z,33.10
2019-05-18T15:59:34.437Z,31.80
2019-05-18T16:02:06.396Z,32.00
2019-05-18T16:04:33.867Z,30.30
2019-05-18T16:07:02.717Z,31.00
2019-05-18T16:09:31.620Z,31.30
2019-05-18T16:12:00.591Z,30.70
2019-05-18T16:14:30.135Z,31.10
2019-05-18T16:16:59.025Z,31.40
2019-05-18T16:19:27.858Z,32.10
2019-05-18T16:21:56.843Z,33.90
2019-05-18T16:24:25.688Z,35.40
2019-05-18T16:26:54.629Z,37.70
2019-05-18T16:29:23.438Z,40.00
2019-05-18T16:31:52.482Z,43.50
2019-05-18T16:34:21.335Z,44.30
2019-05-18T16:36:50.262Z,45.60
2019-05-18T16:39:19.120Z,46.70
2019-05-18T16:41:48.035Z,49.10
2019-05-18T16:44:16.911Z,49.40
2019-05-18T16:46:45.836Z,50.10
2019-05-18T16:49:14.715Z,50.60
2019-05-18T16:51:43.640Z,52.20
2019-05-18T16:54:12.498Z,53.00
2019-05-18T16:56:41.418Z,55.90
2019-05-18T16:59:10.319Z,59.50
2019-05-18T17:01:39.259Z,67.80
2019-05-18T17:04:08.102Z,62.20
2019-05-18T17:06:37.008Z,67.30
2019-05-18T17:09:06.420Z,69.00
2019-05-18T17:11:35.307Z,74.30
2019-05-18T17:14:04.335Z,80.30
2019-05-18T17:16:33.242Z,83.40
2019-05-18T17:19:02.133Z,86.00
2019-05-18T17:21:31.020Z,89.00
2019-05-18T17:23:59.935Z,91.20
2019-05-18T17:26:28.818Z,92.10
2019-05-18T17:28:57.742Z,93.80
2019-05-18T17:31:26.634Z,94.90
2019-05-18T17:33:55.502Z,95.50
2019-05-18T17:36:24.400Z,96.70
2019-05-18T17:38:53.234Z,96.70
2019-05-18T17:41:22.062Z,96.70
2019-05-18T17:43:50.970Z,97.20
2019-05-18T17:46:19.836Z,97.70
2019-05-18T17:48:48.697Z,98.20
2019-05-18T17:51:17.617Z,98.60
2019-05-18T17:53:46.519Z,98.60
2019-05-18T17:56:15.440Z,99.20
2019-05-18T17:58:44.303Z,99.50
2019-05-18T18:01:13.212Z,99.70
2019-05-18T18:03:42.082Z,99.90
2019-05-18T18:06:11.001Z,99.90
2019-05-18T18:08:39.852Z,99.90
2019-05-18T18:11:11.795Z,99.90
2019-05-18T18:13:39.312Z,99.90
2019-05-18T18:16:08.276Z,99.90
2019-05-18T18:18:37.130Z,99.90
2019-05-18T18:21:06.453Z,99.90
2019-05-18T18:23:35.300Z,99.90
2019-05-18T18:26:04.204Z,99.90
2019-05-18T18:28:33.074Z,99.90
2019-05-18T18:31:02.359Z,99.90
2019-05-18T18:33:31.246Z,99.90
2019-05-18T18:36:00.112Z,99.90
2019-05-18T18:38:29.939Z,99.90
2019-05-18T18:40:58.773Z,99.90
2019-05-18T18:43:27.718Z,99.90
2019-05-18T18:45:56.584Z,99.90
2019-05-18T18:48:26.563Z,99.90
2019-05-18T18:50:55.561Z,99.90
2019-05-18T18:53:24.468Z,99.90
2019-05-18T18:55:53.339Z,99.90
2019-05-18T18:58:22.238Z,99.90
2019-05-18T19:00:51.092Z,99.90
2019-05-18T19:03:20.015Z,99.90
2019-05-18T19:05:48.862Z,99.90
2019-05-18T19:08:17.829Z,99.90
2019-05-18T19:10:46.660Z,99.90
2019-05-18T19:13:15.575Z,99.90
2019-05-18T19:15:44.486Z,99.90
2019-05-18T19:18:13.328Z,99.90
2019-05-18T19:20:42.227Z,99.90
2019-05-18T19:23:11.129Z,99.90
2019-05-18T19:25:40.028Z,99.90
2019-05-18T19:28:08.866Z,99.90
2019-05-18T19:30:37.957Z,99.90
2019-05-18T19:33:06.917Z,99.90
2019-05-18T19:35:35.836Z,99.90
2019-05-18T19:38:04.887Z,99.90
2019-05-18T19:40:33.855Z,99.90
2019-05-18T19:43:02.809Z,99.90
2019-05-18T19:45:31.685Z,99.90
2019-05-18T19:48:00.587Z,99.90
2019-05-18T19:50:29.445Z,99.90
2019-05-18T19:52:58.303Z,99.90
2019-05-18T19:55:27.244Z,99.90
2019-05-18T19:58:08.131Z,99.90
2019-05-18T20:00:26.764Z,99.90
2019-05-18T20:02:55.670Z,99.90
2019-05-18T20:05:24.556Z,99.90
2019-05-18T20:07:53.489Z,99.90
2019-05-18T20:10:22.545Z,99.90
2019-05-18T20:12:51.513Z,99.90
2019-05-18T20:15:20.383Z,99.90
2019-05-18T20:17:49.248Z,99.90
2019-05-18T20:20:19.488Z,99.90
2019-05-18T20:22:48.368Z,99.90
2019-05-18T20:25:17.452Z,99.90
2019-05-18T20:27:46.345Z,99.90
2019-05-18T20:30:15.357Z,99.90
2019-05-18T20:32:44.214Z,99.90
2019-05-18T20:35:13.559Z,99.90
2019-05-18T20:37:42.398Z,99.90
2019-05-18T20:40:11.880Z,99.90
2019-05-18T20:42:40.801Z,99.90
2019-05-18T20:45:09.960Z,99.90
2019-05-18T20:47:38.817Z,99.90
2019-05-18T20:50:08.329Z,99.90
2019-05-18T20:52:37.287Z,99.90
2019-05-18T20:55:06.357Z,99.90
2019-05-18T20:57:35.312Z,99.90
2019-05-18T21:00:04.957Z,99.90
2019-05-18T21:02:33.810Z,99.90
2019-05-18T21:05:02.755Z,99.90
2019-05-18T21:07:31.703Z,99.90
2019-05-18T21:10:00.628Z,99.90
2019-05-18T21:12:29.564Z,99.90
2019-05-18T21:14:58.499Z,99.90
2019-05-18T21:17:27.411Z,99.90
2019-05-18T21:19:56.340Z,99.90
2019-05-18T21:22:25.241Z,99.90
2019-05-18T21:24:54.163Z,99.90
2019-05-18T21:27:23.018Z,99.90
2019-05-18T21:29:51.944Z,99.90
2019-05-18T21:32:20.863Z,99.90
2019-05-18T21:34:49.765Z,99.90
2019-05-18T21:37:18.683Z,99.90
2019-05-18T21:39:47.543Z,99.90
2019-05-18T21:42:16.440Z,99.90
2019-05-18T21:44:45.376Z,99.90
2019-05-18T21:47:14.217Z,99.90
2019-05-18T21:49:43.325Z,99.90
2019-05-18T21:52:12.232Z,99.90
2019-05-18T21:54:41.163Z,99.90
2019-05-18T21:57:09.991Z,99.90
2019-05-18T21:59:38.918Z,99.90
2019-05-18T22:02:07.918Z,99.90
2019-05-18T22:04:36.796Z,99.90
2019-05-18T22:07:05.734Z,99.90
2019-05-18T22:09:34.664Z,99.90
2019-05-18T22:12:07.151Z,99.90
2019-05-18T22:14:36.017Z,99.90
2019-05-18T22:17:04.934Z,99.90
2019-05-18T22:19:33.857Z,99.90
2019-05-18T22:22:02.697Z,99.90
2019-05-18T22:24:31.634Z,99.90
2019-05-18T22:27:00.556Z,99.90
2019-05-18T22:29:29.505Z,99.90
2019-05-18T22:31:58.397Z,99.90
2019-05-18T22:34:27.326Z,99.90
2019-05-18T22:36:56.280Z,99.90
2019-05-18T22:39:26.716Z,99.90
2019-05-18T22:41:55.737Z,99.90
2019-05-18T22:44:24.661Z,99.90
2019-05-18T22:46:53.584Z,99.90
2019-05-18T22:49:22.435Z,99.90
2019-05-18T22:51:51.666Z,99.90
2019-05-18T22:54:20.544Z,99.90
2019-05-18T22:56:49.454Z,99.90
2019-05-18T22:59:18.293Z,99.90
2019-05-18T23:01:47.236Z,99.90
2019-05-18T23:04:16.095Z,99.90
2019-05-18T23:06:45.001Z,99.90
2019-05-18T23:09:13.875Z,99.90
2019-05-18T23:11:42.827Z,99.90
2019-05-18T23:14:11.779Z,99.90
2019-05-18T23:16:40.869Z,99.90
2019-05-18T23:19:09.813Z,99.90
2019-05-18T23:21:38.687Z,99.90
2019-05-18T23:24:07.572Z,99.90
2019-05-18T23:26:36.473Z,99.90
2019-05-18T23:29:05.292Z,99.90
2019-05-18T23:31:34.190Z,99.90
2019-05-18T23:34:03.115Z,99.90
2019-05-18T23:36:32.077Z,99.90
2019-05-18T23:39:00.984Z,99.90
2019-05-18T23:41:29.822Z,99.90
2019-05-18T23:43:58.839Z,99.90
2019-05-18T23:46:27.765Z,99.90
2019-05-18T23:49:08.722Z,99.90
2019-05-18T23:51:27.202Z,99.90
2019-05-18T23:53:58.231Z,99.90
2019-05-18T23:56:27.116Z,99.90
2019-05-18T23:58:56.103Z,99.90
